Safaga, Egypt
Current Conditions -  °F | °C
As of 9:00 AM on Saturday 25 Oct 2014 (Local Time) from HEGN Reporting Station
Clear Clear  
Wind Chill: 86°   Ceiling: Unl
Heat Index: 86°   Visibility: 6mi
Dew Point: 46°   Wind: 16mph
Humidity: 25%   Direction: 330°NNW
Pressure: 29.97"   Gusts: NA
Location:  26.73°N, 33.93°E
Report Text: HEGN 250700Z 33014KT CAVOK 30/08 Q1015 NOSIG
Loading
Personal Weather Stations






























Interactive Weather Map
Tropical Storm Tracking
New forecast layout! Learn more

10-Day Weather Forecast

Advertisements
Track Severe Weather on mobile